Sidestown, North Carolina
Current Conditions -  °F | °C
As of 3:55 PM on Saturday 25 Oct 2014 (Local Time) from KJQF Reporting Station
Clear Clear  
Wind Chill: 75°   Ceiling: Unl
Heat Index: 75°   Visibility: 10mi
Dew Point: 30°   Wind: 7mph
Humidity: 19%   Direction: 250°WSW
Pressure: 29.98"   Gusts: NA
Location:  35.3735°N, 80.5212°W
Report Text: KJQF 251955Z 25006KT 10SM CLR 24/M01 A2998
Loading
Personal Weather Stations






























Interactive Weather Map
Tropical Storm Tracking
New forecast layout! Learn more

10-Day Weather Forecast

Advertisements
Track Severe Weather on mobile